^^
TXWeather Station Historical Data
Daily Summary for February 04, 2022 Units:  English    Metric   Both
Daily Weekly Monthly Yearly Custom
  High: Low: Average:
Temperature: 33.0 °F 25.0 °F 29.5 °F
Dew Point: 26.0 °F 20.0 °F 23.4 °F
Humidity: 84% 72% 78%
Wind Speed: 21mph 8mph 13.4mph
Wind Gust: 23mph - -
Wind- - WNW
Pressure: 30.7 in 30.4 in -
Precipitation: 0.000 in    
Historical Graphs
 
 
Tabular Data for February 04, 2022
Time Temperature Dew Point Pressure Wind Wind Speed Wind Gust Humidity Rainfall Rate (Hourly) solar
00:04 28.0 °F 24.0 °F 30.4 in NW 16 mph 17 mph 84% 0.000 in 0.00 W/m2
00:09 28.0 °F 24.0 °F 30.4 in NW 12 mph 17 mph 84% 0.000 in 0.00 W/m2
00:14 28.0 °F 24.0 °F 30.4 in NW 14 mph 19 mph 84% 0.000 in 0.00 W/m2
00:19 28.0 °F 24.0 °F 30.4 in NW 13 mph 15 mph 84% 0.000 in 0.00 W/m2
00:24 28.0 °F 24.0 °F 30.4 in NW 14 mph 14 mph 84% 0.000 in 0.00 W/m2
00:29 28.0 °F 24.0 °F 30.4 in NW 18 mph 18 mph 84% 0.000 in 0.00 W/m2
00:34 28.0 °F 24.0 °F 30.4 in NW 19 mph 19 mph 84% 0.000 in 0.00 W/m2
00:39 28.0 °F 24.0 °F 30.4 in NW 15 mph 19 mph 83% 0.000 in 0.00 W/m2
00:44 28.0 °F 24.0 °F 30.4 in NW 12 mph 18 mph 83% 0.000 in 0.00 W/m2
00:49 28.0 °F 24.0 °F 30.4 in NW 12 mph 14 mph 83% 0.000 in 0.00 W/m2
00:54 28.0 °F 24.0 °F 30.4 in NW 15 mph 15 mph 83% 0.000 in 0.00 W/m2
00:59 28.0 °F 24.0 °F 30.4 in NW 11 mph 12 mph 83% 0.000 in 0.00 W/m2
01:04 28.0 °F 24.0 °F 30.4 in NNW 14 mph 14 mph 83% 0.000 in 0.00 W/m2
01:09 28.0 °F 23.0 °F 30.4 in NW 13 mph 13 mph 82% 0.000 in 0.00 W/m2
01:14 28.0 °F 23.0 °F 30.4 in NNW 15 mph 15 mph 82% 0.000 in 0.00 W/m2
01:19 28.0 °F 24.0 °F 30.4 in NNW 12 mph 12 mph 82% 0.000 in 0.00 W/m2
01:24 28.0 °F 24.0 °F 30.4 in NW 10 mph 12 mph 82% 0.000 in 0.00 W/m2
01:29 28.0 °F 24.0 °F 30.4 in NW 10 mph 11 mph 83% 0.000 in 0.00 W/m2
01:34 28.0 °F 24.0 °F 30.4 in NW 9 mph 11 mph 83% 0.000 in 0.00 W/m2
01:39 28.0 °F 24.0 °F 30.4 in NW 10 mph 10 mph 83% 0.000 in 0.00 W/m2
01:44 28.0 °F 24.0 °F 30.4 in NW 14 mph 14 mph 83% 0.000 in 0.00 W/m2
01:49 28.0 °F 24.0 °F 30.4 in NW 14 mph 14 mph 83% 0.000 in 0.00 W/m2
01:54 28.0 °F 24.0 °F 30.4 in NNW 12 mph 14 mph 83% 0.000 in 0.00 W/m2
01:59 28.0 °F 23.0 °F 30.4 in NW 14 mph 14 mph 83% 0.000 in 0.00 W/m2
02:04 28.0 °F 23.0 °F 30.4 in NW 14 mph 14 mph 83% 0.000 in 0.00 W/m2
02:09 28.0 °F 23.0 °F 30.4 in NW 15 mph 15 mph 83% 0.000 in 0.00 W/m2
02:14 28.0 °F 23.0 °F 30.4 in NW 17 mph 20 mph 83% 0.000 in 0.00 W/m2
02:19 28.0 °F 23.0 °F 30.4 in NNW 15 mph 20 mph 83% 0.000 in 0.00 W/m2
02:24 27.0 °F 23.0 °F 30.4 in NW 17 mph 17 mph 83% 0.000 in 0.00 W/m2
02:29 27.0 °F 23.0 °F 30.4 in NW 14 mph 15 mph 83% 0.000 in 0.00 W/m2
02:34 27.0 °F 23.0 °F 30.4 in NW 18 mph 18 mph 83% 0.000 in 0.00 W/m2
02:39 27.0 °F 23.0 °F 30.4 in NNW 15 mph 18 mph 83% 0.000 in 0.00 W/m2
02:44 27.0 °F 23.0 °F 30.4 in NW 13 mph 13 mph 83% 0.000 in 0.00 W/m2
02:49 27.0 °F 23.0 °F 30.4 in NW 13 mph 14 mph 83% 0.000 in 0.00 W/m2
02:54 27.0 °F 23.0 °F 30.4 in NW 11 mph 12 mph 83% 0.000 in 0.00 W/m2
02:59 27.0 °F 23.0 °F 30.4 in NW 10 mph 12 mph 83% 0.000 in 0.00 W/m2
03:04 27.0 °F 23.0 °F 30.4 in NW 10 mph 12 mph 83% 0.000 in 0.00 W/m2
03:09 27.0 °F 23.0 °F 30.4 in NW 12 mph 13 mph 83% 0.000 in 0.00 W/m2
03:14 27.0 °F 23.0 °F 30.4 in NW 16 mph 18 mph 83% 0.000 in 0.00 W/m2
03:19 27.0 °F 23.0 °F 30.4 in NW 12 mph 18 mph 83% 0.000 in 0.00 W/m2
03:24 27.0 °F 23.0 °F 30.4 in NW 10 mph 11 mph 83% 0.000 in 0.00 W/m2
03:29 27.0 °F 23.0 °F 30.4 in NW 10 mph 12 mph 83% 0.000 in 0.00 W/m2
03:34 27.0 °F 23.0 °F 30.4 in NW 10 mph 12 mph 83% 0.000 in 0.00 W/m2
03:39 27.0 °F 23.0 °F 30.4 in NW 11 mph 11 mph 83% 0.000 in 0.00 W/m2
03:44 27.0 °F 23.0 °F 30.4 in NW 11 mph 15 mph 83% 0.000 in 0.00 W/m2
03:49 27.0 °F 23.0 °F 30.4 in NW 13 mph 14 mph 83% 0.000 in 0.00 W/m2
03:54 27.0 °F 23.0 °F 30.4 in NNW 13 mph 15 mph 83% 0.000 in 0.00 W/m2
03:59 27.0 °F 22.0 °F 30.4 in NW 13 mph 13 mph 83% 0.000 in 0.00 W/m2
04:04 27.0 °F 22.0 °F 30.4 in NW 16 mph 16 mph 83% 0.000 in 0.00 W/m2
04:09 27.0 °F 22.0 °F 30.4 in WNW 16 mph 16 mph 83% 0.000 in 0.00 W/m2
04:14 26.0 °F 22.0 °F 30.4 in NW 12 mph 13 mph 83% 0.000 in 0.00 W/m2
04:19 26.0 °F 22.0 °F 30.5 in NW 14 mph 15 mph 83% 0.000 in 0.00 W/m2
04:24 26.0 °F 22.0 °F 30.5 in NW 12 mph 15 mph 83% 0.000 in 0.00 W/m2
04:29 26.0 °F 22.0 °F 30.5 in NW 13 mph 14 mph 83% 0.000 in 0.00 W/m2
04:34 26.0 °F 22.0 °F 30.5 in NW 15 mph 15 mph 84% 0.000 in 0.00 W/m2
04:39 26.0 °F 22.0 °F 30.5 in NW 14 mph 15 mph 84% 0.000 in 0.00 W/m2
04:44 26.0 °F 22.0 °F 30.5 in NW 15 mph 19 mph 84% 0.000 in 0.00 W/m2
04:49 26.0 °F 22.0 °F 30.5 in NNW 18 mph 18 mph 83% 0.000 in 0.00 W/m2
04:54 26.0 °F 22.0 °F 30.5 in NW 20 mph 21 mph 83% 0.000 in 0.00 W/m2
04:59 26.0 °F 22.0 °F 30.5 in NW 14 mph 21 mph 83% 0.000 in 0.00 W/m2
05:04 26.0 °F 21.0 °F 30.5 in NNW 12 mph 15 mph 83% 0.000 in 0.00 W/m2
05:09 26.0 °F 21.0 °F 30.5 in NW 12 mph 15 mph 83% 0.000 in 0.00 W/m2
05:14 26.0 °F 21.0 °F 30.5 in NW 14 mph 15 mph 83% 0.000 in 0.00 W/m2
05:19 26.0 °F 21.0 °F 30.5 in NW 15 mph 15 mph 83% 0.000 in 0.00 W/m2
05:24 26.0 °F 21.0 °F 30.5 in NW 11 mph 13 mph 83% 0.000 in 0.00 W/m2
05:29 26.0 °F 21.0 °F 30.5 in NW 13 mph 13 mph 83% 0.000 in 0.00 W/m2
05:34 26.0 °F 21.0 °F 30.5 in NW 16 mph 16 mph 83% 0.000 in 0.00 W/m2
05:39 26.0 °F 21.0 °F 30.5 in NNW 17 mph 17 mph 83% 0.000 in 0.00 W/m2
05:44 26.0 °F 21.0 °F 30.5 in NW 14 mph 16 mph 83% 0.000 in 0.00 W/m2
05:49 26.0 °F 21.0 °F 30.5 in NW 15 mph 16 mph 83% 0.000 in 0.00 W/m2
05:54 26.0 °F 21.0 °F 30.5 in NW 16 mph 16 mph 83% 0.000 in 0.00 W/m2
05:59 26.0 °F 21.0 °F 30.5 in NW 13 mph 16 mph 83% 0.000 in 0.00 W/m2
06:04 26.0 °F 21.0 °F 30.5 in NW 13 mph 13 mph 83% 0.000 in 0.00 W/m2
06:09 26.0 °F 21.0 °F 30.5 in NW 14 mph 14 mph 83% 0.000 in 0.00 W/m2
06:14 25.0 °F 21.0 °F 30.5 in WNW 15 mph 15 mph 83% 0.000 in 0.00 W/m2
06:19 25.0 °F 21.0 °F 30.5 in NW 13 mph 15 mph 83% 0.000 in 0.00 W/m2
06:24 25.0 °F 21.0 °F 30.5 in NW 16 mph 16 mph 83% 0.000 in 0.00 W/m2
06:29 25.0 °F 21.0 °F 30.5 in NW 14 mph 16 mph 83% 0.000 in 0.00 W/m2
06:34 25.0 °F 21.0 °F 30.5 in NW 17 mph 17 mph 83% 0.000 in 0.00 W/m2
06:39 25.0 °F 21.0 °F 30.5 in NW 14 mph 17 mph 83% 0.000 in 0.00 W/m2
06:44 25.0 °F 21.0 °F 30.5 in NW 10 mph 13 mph 83% 0.000 in 0.00 W/m2
06:49 25.0 °F 21.0 °F 30.5 in NW 12 mph 13 mph 83% 0.000 in 0.00 W/m2
06:54 25.0 °F 21.0 °F 30.5 in NNW 10 mph 12 mph 83% 0.000 in 0.00 W/m2
06:59 25.0 °F 21.0 °F 30.5 in WNW 14 mph 14 mph 83% 0.000 in 0.00 W/m2
07:04 25.0 °F 21.0 °F 30.5 in NW 14 mph 14 mph 82% 0.000 in 0.00 W/m2
07:09 25.0 °F 21.0 °F 30.5 in NW 17 mph 17 mph 82% 0.000 in 0.00 W/m2
07:14 25.0 °F 21.0 °F 30.5 in NNW 14 mph 15 mph 82% 0.000 in 0.00 W/m2
07:19 25.0 °F 21.0 °F 30.5 in NW 14 mph 16 mph 82% 0.000 in 0.00 W/m2
07:24 25.0 °F 21.0 °F 30.5 in NNW 13 mph 15 mph 82% 0.000 in 5.00 W/m2
07:29 25.0 °F 21.0 °F 30.5 in NW 13 mph 16 mph 82% 0.000 in 7.00 W/m2
07:34 25.0 °F 21.0 °F 30.5 in NW 16 mph 16 mph 82% 0.000 in 12.00 W/m2
07:39 25.0 °F 21.0 °F 30.5 in NW 20 mph 20 mph 82% 0.000 in 18.00 W/m2
07:44 25.0 °F 21.0 °F 30.5 in NW 17 mph 20 mph 82% 0.000 in 25.00 W/m2
07:49 25.0 °F 21.0 °F 30.5 in NW 18 mph 18 mph 82% 0.000 in 25.00 W/m2
07:54 25.0 °F 21.0 °F 30.5 in NW 17 mph 20 mph 82% 0.000 in 21.00 W/m2
07:59 25.0 °F 21.0 °F 30.5 in NW 13 mph 18 mph 82% 0.000 in 23.00 W/m2
08:04 25.0 °F 20.0 °F 30.5 in NW 11 mph 12 mph 81% 0.000 in 26.00 W/m2
08:09 26.0 °F 21.0 °F 30.5 in NW 13 mph 14 mph 82% 0.000 in 33.00 W/m2
08:14 26.0 °F 21.0 °F 30.5 in NNW 14 mph 16 mph 82% 0.000 in 39.00 W/m2
08:19 26.0 °F 21.0 °F 30.5 in NW 15 mph 16 mph 82% 0.000 in 49.00 W/m2
08:24 26.0 °F 21.0 °F 30.5 in NNW 14 mph 16 mph 81% 0.000 in 51.00 W/m2
08:29 26.0 °F 21.0 °F 30.5 in NNW 18 mph 18 mph 81% 0.000 in 49.00 W/m2
08:34 26.0 °F 21.0 °F 30.5 in NW 18 mph 19 mph 81% 0.000 in 49.00 W/m2
08:39 26.0 °F 21.0 °F 30.5 in NW 17 mph 20 mph 81% 0.000 in 46.00 W/m2
08:44 26.0 °F 21.0 °F 30.5 in NNW 16 mph 17 mph 81% 0.000 in 44.00 W/m2
08:49 26.0 °F 21.0 °F 30.5 in NNW 19 mph 19 mph 81% 0.000 in 39.00 W/m2
08:54 26.0 °F 21.0 °F 30.5 in NNW 12 mph 13 mph 81% 0.000 in 63.00 W/m2
08:59 26.0 °F 21.0 °F 30.5 in NW 17 mph 17 mph 81% 0.000 in 70.00 W/m2
09:04 26.0 °F 21.0 °F 30.5 in NW 15 mph 18 mph 81% 0.000 in 81.00 W/m2
09:09 26.0 °F 21.0 °F 30.5 in NNW 21 mph 21 mph 81% 0.000 in 83.00 W/m2
09:14 26.0 °F 21.0 °F 30.5 in NW 14 mph 16 mph 80% 0.000 in 90.00 W/m2
09:19 26.0 °F 21.0 °F 30.6 in NW 16 mph 18 mph 80% 0.000 in 70.00 W/m2
09:24 26.0 °F 21.0 °F 30.6 in NNW 20 mph 23 mph 80% 0.000 in 79.00 W/m2
09:29 26.0 °F 21.0 °F 30.6 in NNW 16 mph 23 mph 80% 0.000 in 79.00 W/m2
09:34 27.0 °F 21.0 °F 30.6 in NNW 16 mph 18 mph 80% 0.000 in 88.00 W/m2
09:39 27.0 °F 21.0 °F 30.5 in North 16 mph 17 mph 80% 0.000 in 88.00 W/m2
09:44 27.0 °F 22.0 °F 30.5 in NNW 18 mph 18 mph 80% 0.000 in 91.00 W/m2
09:49 27.0 °F 21.0 °F 30.5 in NW 19 mph 19 mph 79% 0.000 in 53.00 W/m2
09:54 27.0 °F 21.0 °F 30.6 in NNW 14 mph 19 mph 79% 0.000 in 58.00 W/m2
09:59 27.0 °F 22.0 °F 30.6 in NNW 16 mph 20 mph 79% 0.000 in 93.00 W/m2
10:04 27.0 °F 22.0 °F 30.5 in NNW 16 mph 20 mph 79% 0.000 in 137.00 W/m2
10:09 28.0 °F 22.0 °F 30.6 in NNW 16 mph 16 mph 79% 0.000 in 125.00 W/m2
10:14 28.0 °F 22.0 °F 30.6 in NNW 15 mph 21 mph 79% 0.000 in 153.00 W/m2
10:19 28.0 °F 22.0 °F 30.6 in NNW 17 mph 17 mph 79% 0.000 in 132.00 W/m2
10:24 28.0 °F 22.0 °F 30.6 in NNW 17 mph 17 mph 78% 0.000 in 134.00 W/m2
10:29 28.0 °F 22.0 °F 30.6 in North 15 mph 17 mph 78% 0.000 in 250.00 W/m2
10:34 28.0 °F 22.0 °F 30.6 in NW 18 mph 21 mph 78% 0.000 in 250.00 W/m2
10:39 28.0 °F 23.0 °F 30.6 in NNW 18 mph 18 mph 78% 0.000 in 207.00 W/m2
10:44 29.0 °F 23.0 °F 30.6 in NNW 12 mph 18 mph 78% 0.000 in 153.00 W/m2
10:49 29.0 °F 23.0 °F 30.6 in NNW 16 mph 16 mph 78% 0.000 in 141.00 W/m2
10:54 29.0 °F 23.0 °F 30.6 in NNW 16 mph 16 mph 78% 0.000 in 169.00 W/m2
10:59 29.0 °F 23.0 °F 30.6 in NNW 15 mph 19 mph 78% 0.000 in 156.00 W/m2
11:04 29.0 °F 23.0 °F 30.6 in NNW 16 mph 19 mph 77% 0.000 in 142.00 W/m2
11:09 29.0 °F 23.0 °F 30.6 in NNW 15 mph 15 mph 77% 0.000 in 148.00 W/m2
11:14 29.0 °F 23.0 °F 30.6 in NNW 17 mph 20 mph 77% 0.000 in 148.00 W/m2
11:19 29.0 °F 23.0 °F 30.6 in NW 15 mph 16 mph 77% 0.000 in 137.00 W/m2
11:24 29.0 °F 23.0 °F 30.6 in NW 15 mph 17 mph 77% 0.000 in 149.00 W/m2
11:29 29.0 °F 23.0 °F 30.6 in NNW 17 mph 17 mph 77% 0.000 in 151.00 W/m2
11:34 29.0 °F 23.0 °F 30.6 in NNW 13 mph 17 mph 77% 0.000 in 160.00 W/m2
11:39 29.0 °F 23.0 °F 30.6 in NW 16 mph 16 mph 77% 0.000 in 162.00 W/m2
11:44 29.0 °F 23.0 °F 30.6 in NW 14 mph 16 mph 77% 0.000 in 156.00 W/m2
11:49 29.0 °F 23.0 °F 30.6 in NNW 13 mph 15 mph 77% 0.000 in 144.00 W/m2
11:54 29.0 °F 23.0 °F 30.6 in NNW 15 mph 15 mph 77% 0.000 in 146.00 W/m2
11:59 29.0 °F 23.0 °F 30.6 in NW 13 mph 15 mph 77% 0.000 in 128.00 W/m2
12:04 30.0 °F 23.0 °F 30.6 in NW 14 mph 15 mph 77% 0.000 in 120.00 W/m2
12:09 29.0 °F 23.0 °F 30.6 in NNW 14 mph 16 mph 76% 0.000 in 118.00 W/m2
12:14 29.0 °F 23.0 °F 30.6 in NW 16 mph 16 mph 76% 0.000 in 139.00 W/m2
12:19 30.0 °F 23.0 °F 30.6 in NNW 15 mph 15 mph 76% 0.000 in 162.00 W/m2
12:24 30.0 °F 23.0 °F 30.6 in NW 13 mph 14 mph 76% 0.000 in 162.00 W/m2
12:29 30.0 °F 23.0 °F 30.6 in NNW 15 mph 15 mph 76% 0.000 in 155.00 W/m2
12:34 30.0 °F 23.0 °F 30.6 in NW 16 mph 16 mph 76% 0.000 in 169.00 W/m2
12:39 30.0 °F 23.0 °F 30.6 in NNW 13 mph 14 mph 76% 0.000 in 172.00 W/m2
12:44 30.0 °F 23.0 °F 30.6 in NW 14 mph 14 mph 75% 0.000 in 155.00 W/m2
12:49 30.0 °F 23.0 °F 30.6 in NW 13 mph 13 mph 75% 0.000 in 156.00 W/m2
12:54 30.0 °F 23.0 °F 30.6 in NW 13 mph 14 mph 75% 0.000 in 167.00 W/m2
12:59 30.0 °F 23.0 °F 30.6 in NW 16 mph 16 mph 75% 0.000 in 165.00 W/m2
13:04 30.0 °F 23.0 °F 30.6 in NW 15 mph 16 mph 75% 0.000 in 171.00 W/m2
13:09 30.0 °F 23.0 °F 30.6 in NW 13 mph 15 mph 75% 0.000 in 169.00 W/m2
13:14 30.0 °F 23.0 °F 30.6 in NNW 15 mph 16 mph 75% 0.000 in 199.00 W/m2
13:19 30.0 °F 23.0 °F 30.6 in NNW 17 mph 17 mph 75% 0.000 in 204.00 W/m2
13:24 30.0 °F 23.0 °F 30.6 in NNW 16 mph 17 mph 75% 0.000 in 211.00 W/m2
13:29 30.0 °F 23.0 °F 30.6 in NNW 13 mph 14 mph 74% 0.000 in 202.00 W/m2
13:34 31.0 °F 23.0 °F 30.6 in NW 15 mph 15 mph 74% 0.000 in 172.00 W/m2
13:39 31.0 °F 23.0 °F 30.6 in NW 16 mph 16 mph 74% 0.000 in 183.00 W/m2
13:44 31.0 °F 23.0 °F 30.6 in NNW 15 mph 16 mph 74% 0.000 in 179.00 W/m2
13:49 31.0 °F 23.0 °F 30.6 in NW 12 mph 16 mph 74% 0.000 in 221.00 W/m2
13:54 31.0 °F 23.0 °F 30.6 in NW 16 mph 16 mph 74% 0.000 in 216.00 W/m2
13:59 31.0 °F 23.0 °F 30.6 in NW 12 mph 14 mph 73% 0.000 in 199.00 W/m2
14:04 31.0 °F 24.0 °F 30.6 in NNW 14 mph 14 mph 73% 0.000 in 188.00 W/m2
14:09 31.0 °F 24.0 °F 30.6 in NW 13 mph 13 mph 74% 0.000 in 185.00 W/m2
14:14 31.0 °F 24.0 °F 30.6 in NW 15 mph 16 mph 73% 0.000 in 186.00 W/m2
14:19 31.0 °F 24.0 °F 30.6 in NNW 12 mph 15 mph 73% 0.000 in 186.00 W/m2
14:24 31.0 °F 24.0 °F 30.6 in NNW 13 mph 15 mph 73% 0.000 in 185.00 W/m2
14:29 32.0 °F 24.0 °F 30.6 in NW 12 mph 13 mph 73% 0.000 in 186.00 W/m2
14:34 32.0 °F 24.0 °F 30.6 in NW 12 mph 14 mph 73% 0.000 in 186.00 W/m2
14:39 32.0 °F 24.0 °F 30.6 in NW 11 mph 12 mph 73% 0.000 in 195.00 W/m2
14:44 32.0 °F 24.0 °F 30.6 in NW 12 mph 14 mph 73% 0.000 in 207.00 W/m2
14:49 32.0 °F 24.0 °F 30.6 in NW 14 mph 16 mph 73% 0.000 in 209.00 W/m2
14:54 32.0 °F 24.0 °F 30.6 in NW 15 mph 17 mph 73% 0.000 in 216.00 W/m2
14:59 32.0 °F 24.0 °F 30.6 in NNW 17 mph 17 mph 72% 0.000 in 174.00 W/m2
15:04 32.0 °F 24.0 °F 30.6 in NNW 17 mph 18 mph 73% 0.000 in 178.00 W/m2
15:09 32.0 °F 24.0 °F 30.6 in NNW 13 mph 15 mph 73% 0.000 in 158.00 W/m2
15:14 32.0 °F 24.0 °F 30.6 in NNW 14 mph 15 mph 73% 0.000 in 149.00 W/m2
15:19 32.0 °F 24.0 °F 30.6 in NNW 20 mph 20 mph 73% 0.000 in 141.00 W/m2
15:24 32.0 °F 24.0 °F 30.6 in NW 14 mph 20 mph 73% 0.000 in 130.00 W/m2
15:29 32.0 °F 24.0 °F 30.6 in NNW 13 mph 17 mph 73% 0.000 in 134.00 W/m2
15:34 32.0 °F 24.0 °F 30.6 in NNW 14 mph 17 mph 73% 0.000 in 137.00 W/m2
15:39 32.0 °F 24.0 °F 30.6 in NNW 19 mph 20 mph 73% 0.000 in 137.00 W/m2
15:44 32.0 °F 24.0 °F 30.6 in NW 15 mph 20 mph 73% 0.000 in 128.00 W/m2
15:49 32.0 °F 24.0 °F 30.6 in NNW 15 mph 15 mph 73% 0.000 in 121.00 W/m2
15:54 32.0 °F 24.0 °F 30.6 in NNW 13 mph 15 mph 72% 0.000 in 116.00 W/m2
15:59 32.0 °F 24.0 °F 30.6 in NW 16 mph 20 mph 72% 0.000 in 116.00 W/m2
16:04 32.0 °F 24.0 °F 30.6 in NNW 17 mph 20 mph 72% 0.000 in 105.00 W/m2
16:09 32.0 °F 24.0 °F 30.6 in NNW 14 mph 15 mph 72% 0.000 in 95.00 W/m2
16:14 32.0 °F 24.0 °F 30.6 in NNW 13 mph 14 mph 72% 0.000 in 84.00 W/m2
16:19 32.0 °F 24.0 °F 30.6 in NNW 14 mph 15 mph 72% 0.000 in 83.00 W/m2
16:24 32.0 °F 24.0 °F 30.6 in NW 15 mph 15 mph 72% 0.000 in 77.00 W/m2
16:29 32.0 °F 24.0 °F 30.6 in NNW 11 mph 11 mph 72% 0.000 in 67.00 W/m2
16:34 32.0 °F 24.0 °F 30.6 in NNW 12 mph 14 mph 72% 0.000 in 72.00 W/m2
16:39 32.0 °F 24.0 °F 30.6 in NNW 13 mph 14 mph 72% 0.000 in 69.00 W/m2
16:44 32.0 °F 24.0 °F 30.6 in NNW 15 mph 15 mph 72% 0.000 in 60.00 W/m2
16:49 32.0 °F 24.0 °F 30.6 in NW 12 mph 18 mph 72% 0.000 in 56.00 W/m2
16:54 32.0 °F 24.0 °F 30.6 in NNW 14 mph 14 mph 72% 0.000 in 47.00 W/m2
16:59 32.0 °F 24.0 °F 30.6 in NNW 9 mph 12 mph 72% 0.000 in 42.00 W/m2
17:04 32.0 °F 24.0 °F 30.6 in NNW 12 mph 13 mph 72% 0.000 in 39.00 W/m2
17:09 32.0 °F 24.0 °F 30.6 in NNW 14 mph 15 mph 72% 0.000 in 33.00 W/m2
17:14 32.0 °F 24.0 °F 30.6 in NW 12 mph 15 mph 72% 0.000 in 30.00 W/m2
17:19 32.0 °F 24.0 °F 30.6 in NNW 12 mph 12 mph 72% 0.000 in 25.00 W/m2
17:24 32.0 °F 24.0 °F 30.6 in NNW 18 mph 18 mph 72% 0.000 in 21.00 W/m2
17:29 32.0 °F 24.0 °F 30.6 in NNW 14 mph 18 mph 72% 0.000 in 19.00 W/m2
17:34 32.0 °F 24.0 °F 30.6 in NNW 11 mph 13 mph 72% 0.000 in 14.00 W/m2
17:39 33.0 °F 25.0 °F 30.6 in NNW 11 mph 12 mph 73% 0.000 in 12.00 W/m2
17:44 33.0 °F 25.0 °F 30.6 in NNW 11 mph 14 mph 73% 0.000 in 11.00 W/m2
17:49 33.0 °F 25.0 °F 30.6 in North 9 mph 10 mph 73% 0.000 in 7.00 W/m2
17:54 33.0 °F 25.0 °F 30.6 in NNW 14 mph 14 mph 73% 0.000 in 0.00 W/m2
17:59 33.0 °F 25.0 °F 30.6 in North 10 mph 10 mph 73% 0.000 in 0.00 W/m2
18:04 33.0 °F 25.0 °F 30.6 in North 8 mph 9 mph 73% 0.000 in 0.00 W/m2
18:09 33.0 °F 25.0 °F 30.6 in North 9 mph 11 mph 73% 0.000 in 0.00 W/m2
18:14 33.0 °F 25.0 °F 30.6 in North 15 mph 15 mph 73% 0.000 in 0.00 W/m2
18:19 33.0 °F 25.0 °F 30.6 in NNW 12 mph 15 mph 73% 0.000 in 0.00 W/m2
18:24 33.0 °F 25.0 °F 30.6 in North 8 mph 11 mph 73% 0.000 in 0.00 W/m2
18:29 33.0 °F 25.0 °F 30.6 in North 11 mph 11 mph 73% 0.000 in 0.00 W/m2
18:34 33.0 °F 25.0 °F 30.6 in North 11 mph 12 mph 73% 0.000 in 0.00 W/m2
18:39 33.0 °F 25.0 °F 30.6 in North 11 mph 11 mph 73% 0.000 in 0.00 W/m2
18:44 33.0 °F 25.0 °F 30.6 in North 12 mph 12 mph 73% 0.000 in 0.00 W/m2
18:49 33.0 °F 25.0 °F 30.6 in North 8 mph 9 mph 74% 0.000 in 0.00 W/m2
18:54 33.0 °F 25.0 °F 30.6 in NNW 11 mph 11 mph 74% 0.000 in 0.00 W/m2
18:59 33.0 °F 25.0 °F 30.6 in North 12 mph 12 mph 74% 0.000 in 0.00 W/m2
19:04 33.0 °F 25.0 °F 30.6 in North 12 mph 12 mph 74% 0.000 in 0.00 W/m2
19:09 33.0 °F 25.0 °F 30.6 in NNW 14 mph 16 mph 74% 0.000 in 0.00 W/m2
19:14 33.0 °F 25.0 °F 30.6 in North 11 mph 11 mph 74% 0.000 in 0.00 W/m2
19:19 33.0 °F 25.0 °F 30.6 in North 14 mph 16 mph 74% 0.000 in 0.00 W/m2
19:24 33.0 °F 25.0 °F 30.7 in North 10 mph 16 mph 74% 0.000 in 0.00 W/m2
19:29 33.0 °F 26.0 °F 30.7 in North 10 mph 12 mph 74% 0.000 in 0.00 W/m2
19:34 33.0 °F 25.0 °F 30.7 in North 10 mph 12 mph 74% 0.000 in 0.00 W/m2
19:39 33.0 °F 25.0 °F 30.7 in North 14 mph 15 mph 74% 0.000 in 0.00 W/m2
19:44 33.0 °F 25.0 °F 30.7 in NNW 12 mph 12 mph 74% 0.000 in 0.00 W/m2
19:49 33.0 °F 25.0 °F 30.7 in North 11 mph 11 mph 74% 0.000 in 0.00 W/m2
19:54 33.0 °F 25.0 °F 30.7 in North 11 mph 14 mph 74% 0.000 in 0.00 W/m2
19:59 33.0 °F 26.0 °F 30.7 in North 10 mph 10 mph 75% 0.000 in 0.00 W/m2
20:04 33.0 °F 26.0 °F 30.7 in North 9 mph 11 mph 75% 0.000 in 0.00 W/m2
20:09 33.0 °F 26.0 °F 30.7 in North 8 mph 11 mph 75% 0.000 in 0.00 W/m2
20:14 33.0 °F 26.0 °F 30.7 in NNW 13 mph 13 mph 75% 0.000 in 0.00 W/m2
20:19 33.0 °F 26.0 °F 30.7 in North 13 mph 13 mph 75% 0.000 in 0.00 W/m2
20:24 33.0 °F 26.0 °F 30.7 in North 14 mph 14 mph 75% 0.000 in 0.00 W/m2
20:29 33.0 °F 26.0 °F 30.7 in North 14 mph 15 mph 75% 0.000 in 0.00 W/m2
20:34 33.0 °F 26.0 °F 30.7 in North 13 mph 13 mph 75% 0.000 in 0.00 W/m2
20:39 33.0 °F 26.0 °F 30.7 in North 11 mph 12 mph 75% 0.000 in 0.00 W/m2
20:44 33.0 °F 26.0 °F 30.7 in North 10 mph 12 mph 75% 0.000 in 0.00 W/m2
20:49 33.0 °F 26.0 °F 30.7 in North 13 mph 15 mph 75% 0.000 in 0.00 W/m2
20:54 33.0 °F 26.0 °F 30.7 in North 11 mph 12 mph 75% 0.000 in 0.00 W/m2
20:59 33.0 °F 26.0 °F 30.7 in North 14 mph 14 mph 75% 0.000 in 0.00 W/m2
21:04 33.0 °F 26.0 °F 30.7 in North 10 mph 10 mph 75% 0.000 in 0.00 W/m2
21:09 33.0 °F 26.0 °F 30.7 in North 12 mph 12 mph 75% 0.000 in 0.00 W/m2
21:14 33.0 °F 26.0 °F 30.7 in North 12 mph 13 mph 75% 0.000 in 0.00 W/m2
21:19 33.0 °F 26.0 °F 30.7 in North 13 mph 13 mph 75% 0.000 in 0.00 W/m2
21:24 33.0 °F 26.0 °F 30.7 in North 8 mph 11 mph 75% 0.000 in 0.00 W/m2
21:29 33.0 °F 26.0 °F 30.7 in North 11 mph 11 mph 75% 0.000 in 0.00 W/m2
21:34 33.0 °F 26.0 °F 30.7 in North 9 mph 11 mph 75% 0.000 in 0.00 W/m2
21:39 33.0 °F 26.0 °F 30.7 in North 11 mph 11 mph 75% 0.000 in 0.00 W/m2
21:44 33.0 °F 26.0 °F 30.7 in North 10 mph 13 mph 75% 0.000 in 0.00 W/m2
21:49 33.0 °F 26.0 °F 30.7 in NNW 12 mph 13 mph 75% 0.000 in 0.00 W/m2
21:54 33.0 °F 26.0 °F 30.7 in North 12 mph 13 mph 75% 0.000 in 0.00 W/m2
21:59 33.0 °F 26.0 °F 30.7 in North 16 mph 17 mph 75% 0.000 in 0.00 W/m2
22:04 33.0 °F 26.0 °F 30.7 in North 13 mph 14 mph 75% 0.000 in 0.00 W/m2
22:09 33.0 °F 26.0 °F 30.7 in NNW 11 mph 14 mph 75% 0.000 in 0.00 W/m2
22:14 33.0 °F 26.0 °F 30.7 in North 9 mph 11 mph 75% 0.000 in 0.00 W/m2
22:19 33.0 °F 26.0 °F 30.7 in North 14 mph 14 mph 75% 0.000 in 0.00 W/m2
22:24 33.0 °F 26.0 °F 30.7 in North 13 mph 13 mph 75% 0.000 in 0.00 W/m2
22:29 33.0 °F 26.0 °F 30.7 in North 9 mph 13 mph 75% 0.000 in 0.00 W/m2
22:34 33.0 °F 26.0 °F 30.7 in North 11 mph 11 mph 75% 0.000 in 0.00 W/m2
22:39 33.0 °F 26.0 °F 30.7 in North 10 mph 10 mph 75% 0.000 in 0.00 W/m2
22:44 33.0 °F 26.0 °F 30.7 in North 10 mph 11 mph 75% 0.000 in 0.00 W/m2
22:49 33.0 °F 26.0 °F 30.7 in North 9 mph 11 mph 75% 0.000 in 0.00 W/m2
22:54 33.0 °F 26.0 °F 30.7 in North 9 mph 9 mph 75% 0.000 in 0.00 W/m2
22:59 33.0 °F 26.0 °F 30.7 in NNE 11 mph 12 mph 75% 0.000 in 0.00 W/m2
23:04 33.0 °F 26.0 °F 30.7 in North 9 mph 9 mph 76% 0.000 in 0.00 W/m2
23:09 33.0 °F 26.0 °F 30.7 in NNW 8 mph 8 mph 76% 0.000 in 0.00 W/m2
23:14 33.0 °F 26.0 °F 30.7 in North 10 mph 11 mph 76% 0.000 in 0.00 W/m2
23:19 33.0 °F 26.0 °F 30.7 in North 12 mph 12 mph 76% 0.000 in 0.00 W/m2
23:24 33.0 °F 26.0 °F 30.7 in North 9 mph 10 mph 76% 0.000 in 0.00 W/m2
23:29 33.0 °F 26.0 °F 30.7 in NNE 8 mph 8 mph 76% 0.000 in 0.00 W/m2
23:34 33.0 °F 26.0 °F 30.7 in North 8 mph 8 mph 76% 0.000 in 0.00 W/m2
23:39 33.0 °F 26.0 °F 30.7 in North 11 mph 11 mph 76% 0.000 in 0.00 W/m2
23:44 33.0 °F 26.0 °F 30.7 in North 14 mph 14 mph 76% 0.000 in 0.00 W/m2
23:49 32.0 °F 26.0 °F 30.7 in NNE 11 mph 14 mph 76% 0.000 in 0.00 W/m2
23:54 32.0 °F 26.0 °F 30.7 in North 8 mph 9 mph 76% 0.000 in 0.00 W/m2
23:59 32.0 °F 25.0 °F 30.7 in NNE 10 mph 10 mph 76% 0.000 in 0.00 W/m2
Villages of Bridgestone, Spring, TX USA
Compliments of Weather Underground - 4 mb